Pearl, Mississippi
Current Conditions -  °F | °C
As of 11:54 AM on Friday 24 Oct 2014 (Local Time) from KJAN Reporting Station
Few Clouds Few Clouds  
Wind Chill: 69°   Ceiling: Unl
Heat Index: 69°   Visibility: 10mi
Dew Point: 44°   Wind: 7mph
Humidity: 40%   Direction: 350°N
Pressure: 30.13"   Gusts: NA
Location:  32.2996°N, 90.1428°W
Report Text: KJAN 241654Z 35006KT 10SM FEW250 21/07 A3013 RMK AO2 SLP202 T02060067
Loading
Personal Weather Stations






























Interactive Weather Map
Tropical Storm Tracking
New forecast layout! Learn more

10-Day Weather Forecast

Advertisements
Track Severe Weather on mobile